Terminal Aerodrome Forecast
Issued by NWS

Home | Current Version | Previous Version | Graphics & Text | Print | Product List | Glossary On
Versions: 1 2 3 4 5 6 7 8 9 10 11 12 13 14 15 16 17 18 19 20 21 22 23 24 25 26 27 28 29 30 31
000
FTUS43 KABR 191734
TAFATY
TAF
KATY 191734Z 1918/2018 16013KT 3/4SM BR OVC003
      TEMPO 1918/1922 1/4SM FG
     FM192300 17010KT 3/4SM BR OVC003
     FM201000 16008KT 1/2SM FG OVC003
     FM201500 15009KT 3/4SM BR OVC003=

USA.gov is the U.S. government's official web portal to all federal, state and local government web resources and services.